Aeroporto :
LOGIN :

Iscrizione | Disclaimer

   EN    FR    IT 

 










Sommario :    VFR   VFR Marginale   IFR   IFR Intensivo   IFR Molto Intensivo
Visibilità : 
Base nubi : 
>= 8 km
>= 3000ft
5 / 8 km
1000 / 3000 ft
1500m / 5 km
500 / 1000 ft
800 / 1500m
200 / 500 ft
< 800m
< 200 ft
Simboli :   Temporali  Nebbia  Neve Forte  Precipitazioni Forti  Vento > 20 kt
SIGMETs :   Varie  Temporali  Ghiacco  Turbolenza  Onda orograficha  Ceneri Vulcaniche







- Altitudine del aeroporto : 699 ft
- Codice IATA : PAD


EDLP - Paderborn Lippstadt

ULTIMO METAR :
  • 200850Z 26006KT 220V330 1700 BR OVC002 12/11 Q1006

METARs OBSOLETI :
  • 200820Z 27006KT 220V320 0800 R24/1900U FG BKN001 OVC004 12/11 Q1006
  • 200750Z 28005KT 190V310 0650 R24/1100U FG BKN001 OVC004 12/11 Q1006
  • 200720Z 27005KT 220V330 0600 R24/0900U FG VV002 11/11 Q1006
  • 200650Z 25005KT 210V300 0700 R24/1800D FG BKN002 OVC004 11/10 Q1006
  • 200620Z 27005KT 200V320 2000 BR OVC003 12/10 Q1005
  • 200550Z 26005KT 220V330 4500 BR BKN005 12/10 Q1005

TAF AMD TAF EDLP
Valido dal 20 a 06 ore il 21 a 06 ore UTC


200652Z 2006/2106 25004KT 1500 BR BKN003
TEMPO 2007/2010 0300 FG OVC001
BECMG 2010/2013 7000 BKN020
TEMPO 2013/2022 TSRA BKN010CB
BECMG 2018/2021 3500 BR BKN007
BECMG 2100/2103 29010KT 2000 RA BKN003
TEMPO 2103/2106 0300 RA FG OVC001
Nessun NOTAM noto per questo aeroporto.



MetMap, La meteo Aeronautica in un colpo d'occhio ! - Copyright ORBIFLY Dicembre 2007 - Disclaimer

ORBIFLY MET'MAP TEAM :

Programmazione e sviluppo : Alexandra Zaïnal
Concezione e sviluppo : Baudouin d'Aumeries
Co-Programmazione e sviluppo : Marc-Olivier Méhu
Supporto tecnico e logistico : Manuel Goepfert
Aiuto per la traduzione : Arnaldo La Scala

Contatto : metmap@orbifly.com




FONTI E CREDITI :

   NOAA